createdAt,value
2018-12-16T12:48:48.427Z,53.45
2018-12-16T12:50:23.369Z,24.20
2018-12-16T12:51:58.395Z,28.40
2018-12-16T12:53:33.349Z,24.92
2018-12-16T12:55:08.607Z,25.12
2018-12-16T12:56:43.602Z,24.82
2018-12-16T12:58:18.766Z,29.87
2018-12-16T12:59:53.795Z,26.70
2018-12-16T13:01:29.004Z,26.93
2018-12-16T13:03:04.950Z,28.35
2018-12-16T13:04:40.200Z,28.07
2018-12-16T13:06:15.267Z,29.48
2018-12-16T13:07:50.435Z,28.42
2018-12-16T13:09:25.731Z,30.82
2018-12-16T13:11:00.885Z,30.52
2018-12-16T13:12:35.959Z,31.02
2018-12-16T13:14:11.074Z,28.87
2018-12-16T13:15:46.237Z,28.23
2018-12-16T13:17:21.491Z,28.77
2018-12-16T13:18:56.520Z,29.70
2018-12-16T13:20:31.979Z,27.30
2018-12-16T13:22:08.072Z,26.20
2018-12-16T13:23:43.217Z,27.60
2018-12-16T13:25:35.762Z,25.25
2018-12-16T13:27:10.980Z,25.45
2018-12-16T13:28:46.167Z,27.55
2018-12-16T13:30:21.142Z,26.68
2018-12-16T13:31:56.112Z,24.00
2018-12-16T13:33:31.197Z,29.45
2018-12-16T13:35:06.488Z,27.52
2018-12-16T13:36:41.501Z,27.37
2018-12-16T13:38:17.139Z,28.38
2018-12-16T13:39:52.132Z,24.60
2018-12-16T13:41:27.120Z,27.98
2018-12-16T13:43:02.070Z,30.15
2018-12-16T13:44:37.056Z,25.70
2018-12-16T13:46:14.919Z,32.88
2018-12-16T13:47:49.905Z,28.90
2018-12-16T13:49:24.905Z,26.10
2018-12-16T13:50:59.932Z,26.42
2018-12-16T13:52:34.985Z,27.22
2018-12-16T13:54:10.056Z,28.70
2018-12-16T13:55:45.012Z,27.15
2018-12-16T13:57:20.043Z,29.42
2018-12-16T13:58:55.028Z,31.40
2018-12-16T14:00:30.000Z,25.90
2018-12-16T14:02:04.964Z,30.05
2018-12-16T14:03:39.980Z,26.42
2018-12-16T14:05:14.953Z,28.80
2018-12-16T14:06:49.932Z,34.53
2018-12-16T14:08:24.923Z,27.00
2018-12-16T14:09:59.996Z,28.70
2018-12-16T14:11:34.990Z,32.80
2018-12-16T14:13:09.963Z,32.15
2018-12-16T14:14:45.231Z,32.45
2018-12-16T14:16:20.458Z,30.80
2018-12-16T14:17:55.408Z,30.40
2018-12-16T14:19:30.392Z,33.20
2018-12-16T14:21:05.340Z,34.88
2018-12-16T14:22:40.371Z,32.25
2018-12-16T14:24:15.268Z,29.72
2018-12-16T14:25:50.321Z,32.70
2018-12-16T14:27:25.259Z,33.60
2018-12-16T14:29:00.284Z,32.70
2018-12-16T14:30:35.229Z,32.20
2018-12-16T14:32:10.193Z,34.55
2018-12-16T14:33:45.131Z,36.77
2018-12-16T14:35:20.392Z,33.08
2018-12-16T14:36:55.371Z,35.17
2018-12-16T14:38:30.529Z,31.37
2018-12-16T14:40:06.833Z,30.80
2018-12-16T14:41:41.865Z,35.15
2018-12-16T14:43:16.801Z,33.95
2018-12-16T14:44:51.765Z,34.45
2018-12-16T14:46:26.757Z,35.05
2018-12-16T14:48:01.779Z,32.98
2018-12-16T14:49:36.741Z,33.28
2018-12-16T14:51:11.704Z,34.08
2018-12-16T14:52:46.688Z,32.38
2018-12-16T14:54:21.732Z,34.40
2018-12-16T14:55:56.686Z,32.05
2018-12-16T14:57:31.667Z,31.00
2018-12-16T14:59:06.631Z,32.33
2018-12-16T15:00:41.624Z,34.05
2018-12-16T15:02:16.557Z,33.00
2018-12-16T15:03:51.501Z,32.03
2018-12-16T15:05:26.565Z,34.25
2018-12-16T15:07:01.606Z,33.48
2018-12-16T15:08:36.712Z,29.98
2018-12-16T15:10:12.667Z,32.95
2018-12-16T15:11:47.607Z,35.23
2018-12-16T15:13:22.636Z,33.00
2018-12-16T15:14:57.840Z,34.55
2018-12-16T15:16:32.915Z,35.43
2018-12-16T15:18:07.908Z,37.75
2018-12-16T15:19:42.932Z,34.45
2018-12-16T15:21:17.836Z,32.70
2018-12-16T15:22:52.755Z,35.40
2018-12-16T15:24:27.701Z,34.15
2018-12-16T15:26:02.709Z,34.23
2018-12-16T15:27:37.669Z,34.90
2018-12-16T15:29:12.639Z,36.33
2018-12-16T15:30:47.600Z,35.43
2018-12-16T15:32:22.628Z,35.95
2018-12-16T15:33:57.616Z,36.45
2018-12-16T15:35:32.583Z,36.45
2018-12-16T15:37:07.544Z,35.05
2018-12-16T15:38:42.571Z,37.45
2018-12-16T15:40:17.488Z,42.13
2018-12-16T15:41:52.488Z,35.38
2018-12-16T15:43:27.476Z,33.42
2018-12-16T15:45:02.392Z,38.58
2018-12-16T15:46:37.331Z,34.38
2018-12-16T15:48:12.282Z,37.28
2018-12-16T15:49:47.537Z,39.25
2018-12-16T15:51:22.464Z,37.17
2018-12-16T15:52:57.399Z,37.90
2018-12-16T15:54:32.357Z,35.40
2018-12-16T15:56:09.445Z,38.73
2018-12-16T15:57:44.497Z,36.58
2018-12-16T15:59:19.691Z,35.75
2018-12-16T16:00:54.655Z,37.67
2018-12-16T16:02:29.689Z,38.75
2018-12-16T16:04:04.691Z,36.58
2018-12-16T16:05:39.697Z,34.18
2018-12-16T16:07:14.638Z,37.90
2018-12-16T16:08:49.653Z,31.60
2018-12-16T16:10:24.621Z,34.60
2018-12-16T16:11:59.604Z,38.90
2018-12-16T16:13:34.559Z,34.45
2018-12-16T16:15:10.135Z,36.00
2018-12-16T16:16:45.063Z,37.45
2018-12-16T16:18:20.147Z,35.92
2018-12-16T16:19:55.128Z,40.35
2018-12-16T16:21:30.186Z,35.10
2018-12-16T16:23:06.792Z,33.85
2018-12-16T16:24:42.096Z,35.23
2018-12-16T16:26:17.064Z,37.70
2018-12-16T16:27:52.065Z,34.48
2018-12-16T16:29:28.971Z,38.00
2018-12-16T16:31:06.498Z,37.03
2018-12-16T16:32:41.555Z,33.75
2018-12-16T16:34:16.585Z,35.45
2018-12-16T16:35:51.555Z,36.33
2018-12-16T16:37:26.583Z,37.40
2018-12-16T16:39:01.564Z,35.20
2018-12-16T16:40:36.835Z,39.55
2018-12-16T16:42:11.787Z,35.40
2018-12-16T16:43:46.804Z,34.53
2018-12-16T16:45:21.785Z,34.95
2018-12-16T16:46:56.854Z,33.53
2018-12-16T16:48:31.791Z,32.65
2018-12-16T16:50:07.088Z,35.35
2018-12-16T16:51:42.054Z,32.75
2018-12-16T16:53:17.041Z,33.83
2018-12-16T16:54:52.065Z,33.92
2018-12-16T16:56:27.077Z,31.93
2018-12-16T16:58:02.048Z,34.35
2018-12-16T16:59:37.053Z,32.45
2018-12-16T17:01:12.033Z,34.23
2018-12-16T17:02:46.976Z,32.93
2018-12-16T17:04:21.963Z,34.98
2018-12-16T17:05:57.033Z,33.95
2018-12-16T17:07:32.001Z,35.15
2018-12-16T17:09:09.084Z,33.18
2018-12-16T17:10:44.039Z,33.02
2018-12-16T17:12:19.099Z,38.63
2018-12-16T17:13:55.121Z,36.90
2018-12-16T17:15:30.079Z,32.63
2018-12-16T17:17:05.348Z,34.75
2018-12-16T17:18:40.494Z,37.40
2018-12-16T17:20:15.445Z,34.55
2018-12-16T17:21:50.615Z,37.85
2018-12-16T17:23:25.589Z,32.03
2018-12-16T17:25:00.642Z,34.20
2018-12-16T17:26:35.610Z,36.03
2018-12-16T17:28:10.628Z,34.03
2018-12-16T17:29:45.573Z,35.23
2018-12-16T17:31:20.605Z,33.45
2018-12-16T17:32:55.584Z,32.03
2018-12-16T17:34:30.567Z,34.80
2018-12-16T17:36:05.550Z,33.92
2018-12-16T17:37:40.636Z,32.15
2018-12-16T17:39:15.615Z,34.13
2018-12-16T17:40:50.592Z,32.53
2018-12-16T17:42:25.797Z,29.72
2018-12-16T17:44:00.850Z,32.73
2018-12-16T17:45:35.826Z,33.42
2018-12-16T17:47:10.889Z,31.90
2018-12-16T17:48:45.994Z,35.55
2018-12-16T17:50:21.023Z,31.23
2018-12-16T17:51:56.064Z,32.75
2018-12-16T17:53:31.060Z,31.12
2018-12-16T17:55:08.079Z,33.83
2018-12-16T17:56:43.944Z,32.10
2018-12-16T17:58:18.896Z,33.18
2018-12-16T17:59:53.851Z,34.43
2018-12-16T18:01:28.857Z,32.63
2018-12-16T18:03:03.965Z,30.25
2018-12-16T18:04:45.485Z,32.30
2018-12-16T18:06:20.516Z,33.30
2018-12-16T18:07:55.491Z,35.05
2018-12-16T18:09:30.504Z,32.45
2018-12-16T18:11:05.520Z,31.95
2018-12-16T18:12:40.502Z,33.70
2018-12-16T18:14:15.481Z,34.50
2018-12-16T18:15:50.480Z,33.53
2018-12-16T18:17:25.400Z,31.77
2018-12-16T18:19:00.340Z,35.63
2018-12-16T18:20:35.299Z,33.65
2018-12-16T18:22:13.973Z,32.58
2018-12-16T18:23:47.546Z,35.55
2018-12-16T18:25:22.502Z,35.48
2018-12-16T18:26:57.464Z,38.83
2018-12-16T18:28:32.491Z,32.98
2018-12-16T18:30:09.996Z,35.78
2018-12-16T18:31:44.921Z,37.90
2018-12-16T18:33:20.384Z,38.40
2018-12-16T18:34:55.500Z,38.45
2018-12-16T18:36:30.431Z,40.83
2018-12-16T18:38:05.423Z,40.10
2018-12-16T18:39:40.487Z,42.43
2018-12-16T18:41:16.404Z,39.00
2018-12-16T18:42:51.341Z,41.83
2018-12-16T18:44:26.394Z,37.95
2018-12-16T18:46:01.449Z,42.60
2018-12-16T18:47:36.497Z,41.95
2018-12-16T18:49:11.756Z,41.55
2018-12-16T18:50:46.719Z,43.35
2018-12-16T18:52:21.688Z,42.80
2018-12-16T18:53:56.757Z,45.98
2018-12-16T18:55:31.721Z,44.55
2018-12-16T18:57:07.339Z,43.35
2018-12-16T18:58:42.604Z,44.18
2018-12-16T19:00:17.651Z,43.30
2018-12-16T19:01:52.618Z,47.83
2018-12-16T19:03:27.743Z,43.50
2018-12-16T19:05:02.736Z,46.25
2018-12-16T19:06:37.752Z,46.50
2018-12-16T19:08:12.743Z,44.53
2018-12-16T19:09:47.763Z,41.28
2018-12-16T19:11:22.738Z,41.60
2018-12-16T19:12:57.865Z,45.20
2018-12-16T19:14:33.282Z,45.63
2018-12-16T19:16:08.235Z,43.58
2018-12-16T19:17:43.164Z,50.50
2018-12-16T19:19:18.515Z,57.20
2018-12-16T19:20:53.510Z,50.33
2018-12-16T19:22:28.499Z,47.85
2018-12-16T19:24:03.434Z,45.05
2018-12-16T19:25:38.475Z,49.00
2018-12-16T19:27:13.455Z,48.10
2018-12-16T19:28:49.345Z,46.60
2018-12-16T19:30:24.353Z,41.98
2018-12-16T19:31:59.863Z,42.45
2018-12-16T19:33:34.803Z,46.13
2018-12-16T19:35:10.582Z,45.67
2018-12-16T19:36:45.499Z,42.60
2018-12-16T19:38:20.507Z,48.30
2018-12-16T19:39:55.915Z,45.67
2018-12-16T19:41:31.119Z,45.60
2018-12-16T19:43:06.285Z,45.17
2018-12-16T19:44:41.429Z,44.50
2018-12-16T19:46:16.409Z,39.53
2018-12-16T19:47:52.082Z,44.13
2018-12-16T19:49:27.150Z,40.67
2018-12-16T19:51:02.124Z,43.55
2018-12-16T19:52:37.081Z,44.25
2018-12-16T19:54:12.172Z,42.23
2018-12-16T19:55:47.222Z,40.33
2018-12-16T19:57:22.181Z,43.80
2018-12-16T19:58:57.566Z,41.80
2018-12-16T20:00:34.980Z,45.48
2018-12-16T20:02:10.027Z,41.65
2018-12-16T20:03:50.240Z,39.73
2018-12-16T20:05:25.339Z,41.98
2018-12-16T20:07:00.320Z,43.35
2018-12-16T20:08:35.296Z,41.33
2018-12-16T20:10:10.273Z,43.13
2018-12-16T20:11:45.351Z,42.40
2018-12-16T20:13:20.348Z,43.23
2018-12-16T20:14:55.428Z,43.98
2018-12-16T20:16:30.371Z,45.33
2018-12-16T20:18:05.381Z,48.02
2018-12-16T20:19:40.927Z,43.02
2018-12-16T20:21:15.923Z,43.30
2018-12-16T20:22:50.983Z,43.90
2018-12-16T20:24:26.310Z,48.20
2018-12-16T20:26:01.498Z,45.20
2018-12-16T20:27:36.618Z,42.50
2018-12-16T20:29:11.576Z,46.13
2018-12-16T20:30:46.622Z,45.17
2018-12-16T20:32:22.057Z,43.17
2018-12-16T20:33:57.027Z,42.85
2018-12-16T20:35:32.838Z,44.75
2018-12-16T20:37:07.898Z,43.55
2018-12-16T20:38:43.249Z,43.80
2018-12-16T20:40:18.528Z,43.33
2018-12-16T20:41:53.734Z,45.98
2018-12-16T20:43:28.752Z,45.48
2018-12-16T20:45:04.449Z,43.50
2018-12-16T20:46:39.423Z,46.10
2018-12-16T20:48:14.628Z,43.52
2018-12-16T20:49:49.581Z,45.67
2018-12-16T20:51:24.874Z,43.85
2018-12-16T20:52:59.806Z,44.00
2018-12-16T20:54:35.249Z,44.88
2018-12-16T20:56:10.214Z,46.48
2018-12-16T20:57:45.332Z,45.73
2018-12-16T20:59:20.401Z,42.50
2018-12-16T21:00:55.471Z,46.40
2018-12-16T21:02:30.549Z,45.55
2018-12-16T21:04:05.644Z,44.42
2018-12-16T21:05:40.939Z,45.92
2018-12-16T21:07:16.074Z,45.83
2018-12-16T21:08:51.363Z,45.33
2018-12-16T21:10:26.518Z,46.68
2018-12-16T21:12:04.445Z,49.15
2018-12-16T21:13:44.601Z,46.58
2018-12-16T21:15:54.154Z,45.35
2018-12-16T21:17:34.224Z,45.28
2018-12-16T21:19:09.431Z,46.65
2018-12-16T21:20:44.411Z,44.58
2018-12-16T21:22:19.481Z,45.10
2018-12-16T21:23:54.547Z,47.73
2018-12-16T21:25:29.546Z,43.87
2018-12-16T21:27:05.126Z,48.55
2018-12-16T21:28:40.125Z,46.48
2018-12-16T21:30:15.207Z,51.13
2018-12-16T21:31:50.200Z,47.88
2018-12-16T21:33:25.372Z,43.70
2018-12-16T21:35:00.333Z,48.52
2018-12-16T21:36:35.339Z,46.45
2018-12-16T21:38:10.460Z,47.00
2018-12-16T21:39:45.522Z,47.53
2018-12-16T21:41:22.895Z,49.38
2018-12-16T21:42:57.879Z,47.03
2018-12-16T21:44:32.847Z,44.48
2018-12-16T21:46:08.107Z,50.75
2018-12-16T21:47:43.136Z,47.13
2018-12-16T21:49:18.193Z,46.37
2018-12-16T21:50:56.003Z,42.53
2018-12-16T21:52:31.059Z,45.40
2018-12-16T21:54:06.015Z,43.85
2018-12-16T21:55:42.609Z,46.70
2018-12-16T21:57:18.529Z,43.98
2018-12-16T21:58:53.647Z,44.67
2018-12-16T22:00:28.620Z,51.15
2018-12-16T22:02:03.673Z,45.15
2018-12-16T22:03:38.646Z,43.98
2018-12-16T22:05:14.813Z,42.88
2018-12-16T22:06:49.752Z,48.05
2018-12-16T22:08:24.781Z,44.70
2018-12-16T22:09:59.728Z,43.17
2018-12-16T22:11:34.696Z,46.35
2018-12-16T22:13:09.656Z,47.85
2018-12-16T22:14:44.628Z,44.77
2018-12-16T22:16:19.605Z,49.05
2018-12-16T22:17:54.610Z,46.83
2018-12-16T22:19:29.564Z,50.67
2018-12-16T22:21:04.588Z,46.55
2018-12-16T22:22:39.746Z,47.50
2018-12-16T22:24:14.686Z,46.50
2018-12-16T22:25:49.692Z,47.08
2018-12-16T22:27:24.692Z,42.85
2018-12-16T22:28:59.666Z,44.20
2018-12-16T22:30:34.577Z,44.13
2018-12-16T22:32:09.529Z,43.30
2018-12-16T22:33:44.565Z,46.58
2018-12-16T22:35:19.554Z,49.00
2018-12-16T22:36:54.475Z,44.65
2018-12-16T22:38:29.487Z,46.50
2018-12-16T22:40:04.964Z,48.90
2018-12-16T22:41:40.114Z,48.58
2018-12-16T22:43:15.033Z,47.90
2018-12-16T22:44:49.960Z,48.75
2018-12-16T22:46:31.828Z,47.93
2018-12-16T22:48:06.799Z,49.20
2018-12-16T22:49:41.735Z,51.83
2018-12-16T22:51:16.704Z,48.10
2018-12-16T22:52:51.744Z,47.85
2018-12-16T22:54:26.756Z,47.45
2018-12-16T22:56:01.683Z,48.13
2018-12-16T22:57:36.652Z,44.00
2018-12-16T22:59:11.651Z,46.37
2018-12-16T23:00:52.521Z,47.48
2018-12-16T23:02:27.419Z,50.55
2018-12-16T23:04:02.372Z,47.93
2018-12-16T23:05:37.364Z,46.65
2018-12-16T23:07:12.340Z,46.08
2018-12-16T23:08:47.335Z,44.95
2018-12-16T23:10:22.311Z,47.20
2018-12-16T23:11:57.377Z,43.58
2018-12-16T23:13:32.399Z,48.33
2018-12-16T23:15:08.995Z,47.98
2018-12-16T23:16:44.013Z,48.35
2018-12-16T23:18:18.963Z,49.63
2018-12-16T23:19:59.020Z,49.15
2018-12-16T23:21:33.936Z,48.80
2018-12-16T23:23:08.855Z,48.38
2018-12-16T23:24:44.033Z,48.75
2018-12-16T23:26:19.072Z,46.45
2018-12-16T23:27:54.572Z,48.55
2018-12-16T23:29:29.512Z,47.73
2018-12-16T23:31:04.464Z,48.73
2018-12-16T23:32:39.433Z,50.05
2018-12-16T23:34:14.396Z,46.83
2018-12-16T23:35:49.324Z,49.10
2018-12-16T23:37:24.291Z,47.75
2018-12-16T23:38:59.337Z,49.73
2018-12-16T23:40:34.345Z,50.12
2018-12-16T23:42:09.296Z,45.65
2018-12-16T23:43:44.308Z,51.80
2018-12-16T23:45:19.270Z,52.05
2018-12-16T23:46:54.245Z,47.73
2018-12-16T23:48:29.224Z,48.02
2018-12-16T23:50:04.756Z,50.55
2018-12-16T23:51:39.943Z,51.20
2018-12-16T23:53:14.953Z,51.53
2018-12-16T23:54:52.125Z,52.00
2018-12-16T23:56:27.093Z,50.23
2018-12-16T23:58:02.108Z,53.83
2018-12-16T23:59:37.529Z,49.93
